Time;durP1;ratioP1;P1;durP2;ratioP2;P2;SDS_P1;SDS_P2;PMS_P1;PMS_P2;Temp;Humidity;BMP_temperature;BMP_pressure;BME280_temperature;BME280_humidity;BME280_pressure;Samples;Min_cycle;Max_cycle;Signal;HPM_P1;HPM_P2
2023/05/06 00:02:11;;;;;;;6.80;5.20;;;12.30;99.90;;;;;;5027220;28;20377;-69
2023/05/06 00:04:37;;;;;;;7.37;5.37;;;12.30;99.90;;;;;;5024325;28;20332;-69
2023/05/06 00:07:03;;;;;;;7.00;5.50;;;12.20;99.90;;;;;;5026711;28;20203;-69
2023/05/06 00:09:28;;;;;;;11.20;5.63;;;12.20;99.90;;;;;;5026568;28;20705;-69
2023/05/06 00:11:54;;;;;;;7.40;5.03;;;12.20;99.90;;;;;;5026738;28;20346;-69
2023/05/06 00:14:19;;;;;;;11.50;6.30;;;12.00;99.90;;;;;;5026112;28;20293;-69
2023/05/06 00:16:45;;;;;;;6.37;4.63;;;11.90;99.90;;;;;;5026049;28;20252;-69
2023/05/06 00:19:10;;;;;;;5.80;4.93;;;11.80;99.90;;;;;;5024527;28;20688;-68
2023/05/06 00:21:36;;;;;;;9.23;5.67;;;11.80;99.90;;;;;;5027001;28;20663;-69
2023/05/06 00:24:02;;;;;;;6.77;5.73;;;11.60;99.90;;;;;;5027141;28;20201;-69
2023/05/06 00:26:27;;;;;;;10.13;5.70;;;11.60;99.90;;;;;;5025849;28;20227;-69
2023/05/06 00:28:53;;;;;;;9.43;5.23;;;11.60;99.90;;;;;;5024205;28;20226;-67
2023/05/06 00:31:18;;;;;;;7.20;5.90;;;11.60;99.90;;;;;;5025310;28;20229;-69
2023/05/06 00:33:44;;;;;;;7.77;5.20;;;11.50;99.90;;;;;;5026198;28;20206;-69
2023/05/06 00:36:09;;;;;;;10.03;5.97;;;11.50;99.90;;;;;;5025890;28;20665;-69
2023/05/06 00:38:35;;;;;;;6.80;4.93;;;11.50;99.90;;;;;;5025402;28;20769;-69
2023/05/06 00:41:02;;;;;;;6.77;5.20;;;11.60;99.90;;;;;;5024120;28;20205;-69
2023/05/06 00:43:27;;;;;;;7.63;5.53;;;11.50;99.90;;;;;;5030248;28;20199;-69
2023/05/06 00:45:53;;;;;;;6.53;5.20;;;11.50;99.90;;;;;;5023126;28;20600;-68
2023/05/06 00:48:19;;;;;;;6.37;5.47;;;11.40;99.90;;;;;;5026084;28;20231;-68
2023/05/06 00:50:44;;;;;;;10.97;5.57;;;11.30;99.90;;;;;;5025488;28;20209;-68
2023/05/06 00:53:10;;;;;;;6.90;5.10;;;11.30;99.90;;;;;;5024155;28;20207;-68
2023/05/06 00:55:37;;;;;;;9.47;5.13;;;11.30;99.90;;;;;;5025710;28;20217;-69
2023/05/06 00:58:03;;;;;;;6.23;4.57;;;11.30;99.90;;;;;;5025293;28;20252;-68
2023/05/06 01:00:29;;;;;;;7.03;5.90;;;11.30;99.90;;;;;;5025523;28;20291;-69
2023/05/06 01:02:55;;;;;;;6.97;6.27;;;11.20;99.90;;;;;;5025362;28;20882;-67
2023/05/06 01:05:22;;;;;;;7.17;5.37;;;11.20;99.90;;;;;;5024444;28;20282;-67
2023/05/06 01:07:47;;;;;;;5.80;5.23;;;11.20;99.90;;;;;;5025836;28;20213;-68
2023/05/06 01:10:52;;;;;;;8.37;6.30;;;11.20;99.90;;;;;;5026372;28;20208;-68
2023/05/06 01:13:29;;;;;;;6.97;6.27;;;11.20;99.90;;;;;;5027829;28;20206;-68
2023/05/06 01:15:58;;;;;;;10.57;5.43;;;11.20;99.90;;;;;;5016858;28;20213;-69
2023/05/06 01:18:25;;;;;;;5.80;4.83;;;11.20;99.90;;;;;;5024641;28;20197;-68
2023/05/06 01:20:53;;;;;;;6.80;6.07;;;11.20;99.90;;;;;;5025352;28;20716;-67
2023/05/06 01:23:19;;;;;;;8.47;5.63;;;11.20;99.90;;;;;;5026051;28;20192;-68
2023/05/06 01:25:44;;;;;;;9.63;5.60;;;11.10;99.90;;;;;;5025532;28;20199;-67
2023/05/06 01:28:11;;;;;;;13.37;6.77;;;11.00;99.90;;;;;;5029677;28;20219;-68
2023/05/06 01:30:56;;;;;;;10.40;5.87;;;11.10;99.90;;;;;;5029316;28;20216;-68
2023/05/06 01:33:27;;;;;;;8.40;6.00;;;11.10;99.90;;;;;;5021300;28;20216;-67
2023/05/06 01:36:09;;;;;;;8.20;5.80;;;11.20;99.90;;;;;;5031303;28;20693;-68
2023/05/06 01:38:51;;;;;;;11.00;6.10;;;11.20;99.90;;;;;;5024396;28;20562;-68
2023/05/06 01:41:17;;;;;;;11.80;6.77;;;10.80;99.90;;;;;;5029206;28;20213;-68
2023/05/06 01:43:46;;;;;;;8.00;7.17;;;10.70;99.90;;;;;;5027739;28;20659;-68
2023/05/06 01:46:17;;;;;;;6.70;5.80;;;10.80;99.90;;;;;;5021397;28;20199;-68
2023/05/06 01:48:45;;;;;;;9.50;6.43;;;11.00;99.90;;;;;;5029830;28;20614;-68
2023/05/06 01:51:10;;;;;;;6.70;5.53;;;10.80;99.90;;;;;;5030021;28;20212;-68
2023/05/06 01:53:36;;;;;;;9.20;6.57;;;10.90;99.90;;;;;;5026925;28;20201;-68
2023/05/06 01:56:01;;;;;;;7.23;6.50;;;10.60;99.90;;;;;;5028984;28;20632;-68
2023/05/06 01:58:27;;;;;;;9.00;6.47;;;10.50;99.90;;;;;;5028932;28;20197;-71
2023/05/06 02:00:52;;;;;;;8.50;6.53;;;10.70;99.90;;;;;;5027151;28;20218;-70
2023/05/06 02:03:18;;;;;;;6.83;6.03;;;10.70;99.90;;;;;;5028526;28;20280;-69
2023/05/06 02:05:43;;;;;;;11.07;7.30;;;10.50;99.90;;;;;;5027663;28;20678;-69
2023/05/06 02:08:09;;;;;;;11.70;6.10;;;10.50;99.90;;;;;;5021825;28;20259;-69
2023/05/06 02:10:34;;;;;;;7.03;6.20;;;10.50;99.90;;;;;;5032837;28;20565;-70
2023/05/06 02:13:00;;;;;;;7.83;6.70;;;10.50;99.90;;;;;;5031123;28;20203;-69
2023/05/06 02:15:25;;;;;;;13.30;6.93;;;10.40;99.90;;;;;;5026884;28;20236;-68
2023/05/06 02:17:51;;;;;;;11.17;7.17;;;10.10;99.90;;;;;;5028518;28;20544;-68
2023/05/06 02:20:16;;;;;;;8.80;6.83;;;10.40;99.90;;;;;;5024161;28;20213;-68
2023/05/06 02:22:42;;;;;;;8.03;6.03;;;10.30;99.90;;;;;;5028642;28;20531;-69
2023/05/06 02:25:08;;;;;;;11.33;6.67;;;10.30;99.90;;;;;;5028160;28;20187;-70
2023/05/06 02:27:33;;;;;;;11.67;6.67;;;10.40;99.90;;;;;;5028324;28;20292;-69
2023/05/06 02:29:59;;;;;;;9.50;7.73;;;10.30;99.90;;;;;;5026249;28;20233;-69
2023/05/06 02:32:24;;;;;;;11.93;7.20;;;10.30;99.90;;;;;;5031647;28;20327;-69
2023/05/06 02:34:51;;;;;;;7.93;6.60;;;10.40;99.90;;;;;;5038885;28;20331;-69
2023/05/06 02:37:17;;;;;;;10.67;7.23;;;10.50;99.90;;;;;;5036328;28;20945;-69
2023/05/06 02:39:43;;;;;;;14.00;7.00;;;10.50;99.90;;;;;;5038459;28;20219;-69
2023/05/06 02:42:09;;;;;;;10.10;7.37;;;10.40;99.90;;;;;;5038247;28;20195;-69
2023/05/06 02:44:35;;;;;;;14.97;7.87;;;10.20;99.90;;;;;;5036309;28;20210;-68
2023/05/06 02:47:00;;;;;;;9.03;6.80;;;10.20;99.90;;;;;;5038156;28;20200;-68
2023/05/06 02:49:26;;;;;;;7.67;6.87;;;10.30;99.90;;;;;;5036748;28;20305;-69
2023/05/06 02:51:51;;;;;;;11.17;7.17;;;10.20;99.90;;;;;;5037831;28;20225;-69
2023/05/06 02:54:16;;;;;;;10.17;6.60;;;10.20;99.90;;;;;;5037901;28;20232;-69
2023/05/06 02:56:42;;;;;;;10.13;7.10;;;10.20;99.90;;;;;;5038026;28;20211;-69
2023/05/06 02:59:08;;;;;;;7.37;6.60;;;10.30;99.90;;;;;;5036822;28;20212;-69
2023/05/06 03:01:33;;;;;;;7.27;6.53;;;10.00;99.90;;;;;;5037571;28;20194;-69
2023/05/06 03:03:59;;;;;;;7.40;6.07;;;9.80;99.90;;;;;;5037880;28;20205;-69
2023/05/06 03:06:25;;;;;;;8.50;6.27;;;9.80;99.90;;;;;;5036995;28;20224;-68
2023/05/06 03:08:50;;;;;;;9.73;7.10;;;9.60;99.90;;;;;;5035277;28;20201;-67
2023/05/06 03:11:16;;;;;;;9.33;6.57;;;9.80;99.90;;;;;;5037362;28;20227;-68
2023/05/06 03:13:41;;;;;;;7.80;6.77;;;9.80;99.90;;;;;;5037943;28;20200;-68
2023/05/06 03:16:12;;;;;;;10.77;6.60;;;9.70;99.90;;;;;;5037901;28;20362;-68
2023/05/06 03:18:37;;;;;;;8.30;6.30;;;9.50;99.90;;;;;;5029134;28;20209;-68
2023/05/06 03:21:03;;;;;;;7.50;6.70;;;9.70;99.90;;;;;;5026735;28;20221;-68
2023/05/06 03:23:29;;;;;;;8.97;5.83;;;9.80;99.90;;;;;;5027621;28;20190;-68
2023/05/06 03:25:54;;;;;;;13.10;7.17;;;10.00;99.90;;;;;;5028370;28;20228;-68
2023/05/06 03:28:20;;;;;;;11.13;5.90;;;10.00;99.90;;;;;;5027880;28;20220;-68
2023/05/06 03:30:45;;;;;;;9.70;6.30;;;9.80;99.90;;;;;;5027840;28;20202;-67
2023/05/06 03:33:11;;;;;;;9.20;6.93;;;10.10;99.90;;;;;;5027594;28;20733;-68
2023/05/06 03:35:36;;;;;;;8.60;6.20;;;10.10;99.90;;;;;;5025226;28;20227;-67
2023/05/06 03:38:02;;;;;;;9.10;6.10;;;10.10;99.90;;;;;;5027083;28;20196;-68
2023/05/06 03:40:27;;;;;;;8.50;6.40;;;10.20;99.90;;;;;;5029183;28;20235;-68
2023/05/06 03:42:53;;;;;;;8.80;7.37;;;10.00;99.90;;;;;;5023720;28;20688;-67
2023/05/06 03:45:18;;;;;;;11.10;7.50;;;9.60;99.90;;;;;;5026968;28;20223;-67
2023/05/06 03:47:44;;;;;;;7.33;6.27;;;9.70;99.90;;;;;;5026552;28;20225;-66
2023/05/06 03:50:09;;;;;;;7.10;6.40;;;9.70;99.90;;;;;;5025431;28;20191;-66
2023/05/06 03:52:35;;;;;;;9.10;7.17;;;9.60;99.90;;;;;;5027387;28;20643;-66
2023/05/06 03:55:00;;;;;;;7.77;6.63;;;9.50;99.90;;;;;;5027541;28;20225;-67
2023/05/06 03:57:26;;;;;;;9.17;6.63;;;9.40;99.90;;;;;;5026934;28;20208;-67
2023/05/06 03:59:51;;;;;;;7.60;6.90;;;9.30;99.90;;;;;;5027026;28;20273;-68
2023/05/06 04:02:16;;;;;;;8.33;6.27;;;9.30;99.90;;;;;;5024280;28;20221;-68
2023/05/06 04:04:42;;;;;;;8.77;6.43;;;9.70;99.90;;;;;;5026713;28;20251;-68
2023/05/06 04:07:07;;;;;;;10.20;6.50;;;9.40;99.90;;;;;;5026567;28;20209;-68
2023/05/06 04:09:33;;;;;;;11.73;7.27;;;9.50;99.90;;;;;;5029093;28;20714;-68
2023/05/06 04:11:58;;;;;;;9.33;6.30;;;9.40;99.90;;;;;;5023562;28;20209;-67
2023/05/06 04:14:24;;;;;;;8.17;6.50;;;9.50;99.90;;;;;;5024877;28;20209;-68
2023/05/06 04:16:50;;;;;;;11.00;7.23;;;9.40;99.90;;;;;;5017627;28;20295;-67
2023/05/06 04:19:16;;;;;;;6.70;6.00;;;9.30;99.90;;;;;;5027493;28;20880;-68
2023/05/06 04:21:42;;;;;;;9.43;6.67;;;9.50;99.90;;;;;;5028233;28;20204;-68
2023/05/06 04:24:07;;;;;;;8.73;6.80;;;9.50;99.90;;;;;;5025172;28;20192;-67
2023/05/06 04:26:33;;;;;;;8.90;7.43;;;9.20;99.90;;;;;;5026347;28;20535;-67
2023/05/06 04:28:59;;;;;;;8.33;7.30;;;9.20;99.90;;;;;;5025787;28;20228;-69
2023/05/06 04:31:24;;;;;;;9.70;6.60;;;9.30;99.90;;;;;;5027436;28;20204;-68
2023/05/06 04:33:52;;;;;;;12.47;7.83;;;9.50;99.90;;;;;;5026185;28;20213;-67
2023/05/06 04:36:17;;;;;;;14.23;7.47;;;9.30;99.90;;;;;;5023425;28;20284;-68
2023/05/06 04:38:43;;;;;;;12.67;6.87;;;8.90;99.90;;;;;;5030522;28;20294;-67
2023/05/06 04:41:08;;;;;;;11.33;7.77;;;9.00;99.90;;;;;;5020650;28;20221;-67
2023/05/06 04:43:34;;;;;;;7.83;6.93;;;9.20;99.90;;;;;;5029205;28;20208;-67
2023/05/06 04:46:00;;;;;;;7.57;6.80;;;9.20;99.90;;;;;;5023398;28;20197;-67
2023/05/06 04:48:25;;;;;;;12.30;7.33;;;9.30;99.90;;;;;;5026852;28;20219;-67
2023/05/06 04:50:51;;;;;;;7.57;6.77;;;9.30;99.90;;;;;;5026176;28;20260;-67
2023/05/06 04:53:16;;;;;;;8.57;6.73;;;9.30;99.90;;;;;;5023754;28;20244;-68
2023/05/06 04:55:42;;;;;;;7.37;6.00;;;9.30;99.90;;;;;;5025830;28;20675;-67
2023/05/06 04:58:08;;;;;;;7.43;6.60;;;9.10;99.90;;;;;;5025941;28;20268;-68
2023/05/06 05:00:33;;;;;;;8.67;7.57;;;9.30;99.90;;;;;;5024740;28;20251;-68
2023/05/06 05:03:00;;;;;;;10.23;7.07;;;9.40;99.90;;;;;;5025648;28;20200;-68
2023/05/06 05:05:26;;;;;;;9.50;7.17;;;9.60;99.90;;;;;;5025683;28;20192;-67
2023/05/06 05:07:52;;;;;;;8.00;6.10;;;9.20;99.90;;;;;;5023819;28;20255;-69
2023/05/06 05:10:17;;;;;;;9.40;6.63;;;9.40;99.90;;;;;;5026248;28;20205;-69
2023/05/06 05:12:43;;;;;;;9.83;7.07;;;9.50;99.90;;;;;;5024925;28;20208;-69
2023/05/06 05:15:08;;;;;;;9.63;7.33;;;9.70;99.90;;;;;;5026466;28;20215;-69
2023/05/06 05:17:34;;;;;;;10.13;6.33;;;9.70;99.90;;;;;;5026244;28;20611;-69
2023/05/06 05:20:00;;;;;;;9.03;7.10;;;9.60;99.90;;;;;;5019588;28;20206;-72
2023/05/06 05:22:25;;;;;;;9.00;7.97;;;9.70;99.90;;;;;;5025156;28;20197;-71
2023/05/06 05:24:51;;;;;;;8.33;7.20;;;9.60;99.90;;;;;;5025406;28;20263;-69
2023/05/06 05:27:16;;;;;;;11.23;7.03;;;9.30;99.90;;;;;;5025589;28;20966;-69
2023/05/06 05:29:42;;;;;;;8.57;6.80;;;9.30;99.90;;;;;;5022294;28;20225;-68
2023/05/06 05:32:07;;;;;;;9.23;8.40;;;9.50;99.90;;;;;;5026078;28;20197;-70
2023/05/06 05:34:33;;;;;;;11.43;7.07;;;9.70;99.90;;;;;;5024956;28;20214;-70
2023/05/06 05:36:58;;;;;;;8.60;7.07;;;9.70;99.90;;;;;;5026200;28;20206;-68
2023/05/06 05:39:24;;;;;;;8.27;6.17;;;9.70;99.90;;;;;;5026296;28;20705;-69
2023/05/06 05:41:49;;;;;;;8.20;7.20;;;9.50;99.90;;;;;;5025251;28;20797;-71
2023/05/06 05:44:15;;;;;;;7.60;6.63;;;9.30;99.90;;;;;;5025326;28;20249;-69
2023/05/06 05:46:42;;;;;;;12.33;6.93;;;9.20;99.90;;;;;;5023486;28;20189;-70
2023/05/06 05:49:07;;;;;;;8.93;7.33;;;9.30;99.90;;;;;;5023022;28;20204;-69
2023/05/06 05:51:33;;;;;;;7.77;6.67;;;9.30;99.90;;;;;;5026511;28;20213;-69
2023/05/06 05:53:59;;;;;;;7.00;6.37;;;9.70;99.90;;;;;;5025263;28;20209;-69
2023/05/06 05:56:24;;;;;;;11.90;7.83;;;9.70;99.90;;;;;;5025210;28;20209;-69
2023/05/06 05:58:50;;;;;;;10.77;6.13;;;9.60;99.90;;;;;;5021859;28;20205;-70
2023/05/06 06:01:16;;;;;;;11.77;5.90;;;9.40;99.90;;;;;;5020609;28;20229;-69
2023/05/06 06:03:42;;;;;;;8.27;7.47;;;9.40;99.90;;;;;;5024443;28;20668;-70
2023/05/06 06:06:08;;;;;;;8.27;7.17;;;9.30;99.90;;;;;;5025551;28;20197;-69
2023/05/06 06:08:33;;;;;;;6.70;6.10;;;9.10;99.90;;;;;;5025868;28;20321;-69
2023/05/06 06:11:00;;;;;;;10.20;6.03;;;9.10;99.90;;;;;;5024362;28;20207;-67
2023/05/06 06:13:26;;;;;;;10.20;6.37;;;9.30;99.90;;;;;;5028844;28;20668;-68
2023/05/06 06:15:52;;;;;;;7.07;5.97;;;9.30;99.90;;;;;;5028380;28;20204;-67
2023/05/06 06:18:17;;;;;;;7.27;6.10;;;9.40;99.90;;;;;;5028772;28;20206;-67
2023/05/06 06:20:43;;;;;;;9.00;7.93;;;9.20;99.90;;;;;;5031279;28;20208;-67
2023/05/06 06:23:08;;;;;;;8.03;6.40;;;9.30;99.90;;;;;;5027837;28;20238;-68
2023/05/06 06:25:34;;;;;;;8.23;6.77;;;9.30;99.90;;;;;;5023849;28;20216;-68
2023/05/06 06:27:59;;;;;;;7.93;6.33;;;9.20;99.90;;;;;;5031745;28;20254;-70
2023/05/06 06:30:25;;;;;;;10.53;7.37;;;9.30;99.90;;;;;;5025714;28;20216;-70
2023/05/06 06:32:52;;;;;;;8.53;6.60;;;9.40;99.90;;;;;;5028819;28;20205;-68
2023/05/06 06:35:19;;;;;;;11.40;6.97;;;9.30;99.90;;;;;;5028656;28;20748;-68
2023/05/06 06:37:45;;;;;;;8.20;6.97;;;9.30;99.90;;;;;;5025885;28;20200;-68
2023/05/06 06:40:11;;;;;;;9.83;7.07;;;9.00;99.90;;;;;;5027846;28;20224;-68
2023/05/06 06:42:37;;;;;;;10.57;7.30;;;9.10;99.90;;;;;;5027840;28;20201;-69
2023/05/06 06:45:03;;;;;;;10.03;7.80;;;9.30;99.90;;;;;;5026516;28;20200;-69
2023/05/06 06:47:28;;;;;;;9.73;6.30;;;9.10;99.90;;;;;;5027802;28;20351;-70
2023/05/06 06:49:54;;;;;;;9.30;6.97;;;9.20;99.90;;;;;;5031477;28;20216;-70
2023/05/06 06:52:19;;;;;;;9.70;7.93;;;9.30;99.90;;;;;;5026396;28;20211;-70
2023/05/06 06:54:45;;;;;;;10.13;6.57;;;9.20;99.90;;;;;;5028397;28;20195;-69
2023/05/06 06:57:10;;;;;;;10.60;8.07;;;9.30;99.90;;;;;;5030026;28;20200;-71
2023/05/06 06:59:36;;;;;;;8.40;6.70;;;9.40;99.90;;;;;;5018532;28;20974;-68
2023/05/06 07:02:01;;;;;;;11.63;7.67;;;9.40;99.90;;;;;;5024878;28;20192;-69
2023/05/06 07:04:27;;;;;;;10.07;7.47;;;9.50;99.90;;;;;;5026880;28;20206;-69
2023/05/06 07:06:52;;;;;;;7.53;6.83;;;9.40;99.90;;;;;;5028216;28;20287;-69
2023/05/06 07:09:18;;;;;;;9.70;8.13;;;9.40;99.90;;;;;;5021572;28;20343;-68
2023/05/06 07:11:43;;;;;;;10.17;7.10;;;9.50;99.90;;;;;;5018152;28;20219;-71
2023/05/06 07:14:10;;;;;;;11.23;8.17;;;9.40;99.90;;;;;;5019759;28;20206;-68
2023/05/06 07:16:35;;;;;;;9.30;7.40;;;9.10;99.90;;;;;;5029690;28;20208;-68
2023/05/06 07:19:01;;;;;;;9.33;7.57;;;9.20;99.90;;;;;;5027186;28;20200;-69
2023/05/06 07:21:27;;;;;;;8.47;6.83;;;9.20;99.90;;;;;;5027864;28;20233;-70
2023/05/06 07:23:52;;;;;;;10.07;7.63;;;9.10;99.90;;;;;;5025166;28;20191;-68
2023/05/06 07:26:18;;;;;;;9.57;7.20;;;9.30;99.90;;;;;;5028006;28;20302;-68
2023/05/06 07:28:43;;;;;;;10.93;7.43;;;9.20;99.90;;;;;;5027021;28;20823;-70
2023/05/06 07:31:09;;;;;;;12.27;7.33;;;9.30;99.90;;;;;;5026099;28;20932;-69
2023/05/06 07:33:34;;;;;;;9.40;8.17;;;9.10;99.90;;;;;;5025221;28;20552;-69
2023/05/06 07:36:00;;;;;;;11.47;7.83;;;8.80;99.90;;;;;;5026656;28;20201;-69
2023/05/06 07:38:26;;;;;;;9.17;8.27;;;8.70;99.90;;;;;;5028182;28;20269;-69
2023/05/06 07:40:51;;;;;;;8.93;7.57;;;8.90;99.90;;;;;;5025544;28;20219;-69
2023/05/06 07:43:17;;;;;;;7.37;6.67;;;9.10;99.90;;;;;;5026882;28;20716;-69
2023/05/06 07:45:43;;;;;;;12.57;6.90;;;9.00;99.90;;;;;;5026177;28;20216;-69
2023/05/06 07:48:08;;;;;;;9.27;8.07;;;9.30;99.90;;;;;;5021712;28;20211;-70
2023/05/06 07:50:34;;;;;;;9.67;7.80;;;9.30;99.90;;;;;;5018011;28;20206;-70
2023/05/06 07:53:00;;;;;;;10.00;8.53;;;9.30;99.90;;;;;;5027310;28;20256;-70
2023/05/06 07:55:25;;;;;;;9.83;8.93;;;9.50;99.90;;;;;;5027604;28;20205;-68
2023/05/06 07:57:50;;;;;;;10.43;8.67;;;9.30;99.90;;;;;;5027592;28;20664;-68
2023/05/06 08:00:17;;;;;;;9.73;8.57;;;9.20;99.90;;;;;;5026259;28;20221;-69
2023/05/06 08:02:43;;;;;;;11.20;7.93;;;9.10;99.90;;;;;;5024292;28;20275;-69
2023/05/06 08:05:09;;;;;;;12.93;10.30;;;9.30;99.90;;;;;;5025441;28;20205;-69
2023/05/06 08:07:35;;;;;;;10.27;9.37;;;9.40;99.90;;;;;;5026349;28;20270;-69
2023/05/06 08:10:01;;;;;;;10.73;9.37;;;9.40;99.90;;;;;;5026490;28;20739;-69
2023/05/06 08:12:27;;;;;;;11.57;9.03;;;9.30;99.90;;;;;;5026232;28;20201;-69
2023/05/06 08:14:53;;;;;;;13.97;10.53;;;9.20;99.90;;;;;;5023668;28;20685;-70
2023/05/06 08:17:19;;;;;;;13.83;10.13;;;9.40;99.90;;;;;;5029905;28;20287;-70
2023/05/06 08:19:44;;;;;;;10.30;9.07;;;9.70;99.90;;;;;;5022790;28;20216;-69
2023/05/06 08:22:10;;;;;;;13.67;9.47;;;9.70;99.90;;;;;;5026261;28;20232;-69
2023/05/06 08:24:36;;;;;;;11.53;10.33;;;9.80;99.90;;;;;;5023913;28;20275;-69
2023/05/06 08:27:03;;;;;;;11.20;10.10;;;9.70;99.90;;;;;;5026047;28;20209;-69
2023/05/06 08:29:28;;;;;;;12.90;9.97;;;9.80;99.90;;;;;;5025971;28;20663;-69
2023/05/06 08:31:54;;;;;;;9.83;8.80;;;9.80;99.90;;;;;;5025906;28;20838;-68
2023/05/06 08:34:20;;;;;;;12.83;9.87;;;9.80;99.90;;;;;;5024867;28;20200;-69
2023/05/06 08:36:46;;;;;;;9.77;8.77;;;9.80;99.90;;;;;;5025985;28;20636;-69
2023/05/06 08:39:13;;;;;;;9.53;8.63;;;9.60;99.90;;;;;;5024283;28;20210;-69
2023/05/06 08:41:40;;;;;;;10.00;9.00;;;9.40;99.90;;;;;;5026492;28;20202;-69
2023/05/06 08:44:06;;;;;;;11.13;9.93;;;9.70;99.90;;;;;;5026746;28;20298;-69
2023/05/06 08:46:33;;;;;;;10.27;9.27;;;10.00;99.90;;;;;;5024686;28;20684;-69
2023/05/06 08:48:59;;;;;;;12.43;11.07;;;9.50;99.90;;;;;;5025616;28;20204;-69
2023/05/06 08:51:30;;;;;;;12.07;10.97;;;9.30;99.90;;;;;;5027283;28;20238;-73
2023/05/06 08:54:00;;;;;;;11.30;10.10;;;9.20;99.90;;;;;;5022968;28;20204;-70
2023/05/06 08:56:29;;;;;;;11.93;10.00;;;9.30;99.90;;;;;;5025101;28;20722;-70
2023/05/06 08:58:57;;;;;;;11.57;10.37;;;9.30;99.90;;;;;;5024431;28;20569;-70
2023/05/06 09:01:26;;;;;;;10.77;9.57;;;9.40;99.90;;;;;;5019461;28;20281;-69
2023/05/06 09:03:53;;;;;;;12.63;10.50;;;9.30;99.90;;;;;;5025834;28;20214;-69
2023/05/06 09:06:18;;;;;;;10.27;9.17;;;9.30;99.90;;;;;;5023752;28;20209;-68
2023/05/06 09:08:44;;;;;;;10.47;9.50;;;9.40;99.90;;;;;;5025828;28;20198;-68
2023/05/06 09:11:39;;;;;;;11.07;9.97;;;9.40;99.90;;;;;;5025531;28;20217;-69
2023/05/06 09:14:16;;;;;;;10.77;9.67;;;9.50;99.90;;;;;;5012720;28;20216;-69
2023/05/06 09:16:46;;;;;;;12.63;9.33;;;9.50;99.90;;;;;;5024048;28;20283;-69
2023/05/06 09:19:13;;;;;;;10.70;9.70;;;9.50;99.90;;;;;;5025843;28;20207;-70
2023/05/06 09:21:41;;;;;;;10.13;9.13;;;9.70;99.90;;;;;;5024442;28;20698;-70
2023/05/06 09:24:08;;;;;;;10.60;9.47;;;9.70;99.90;;;;;;5025078;28;20682;-68
2023/05/06 09:26:35;;;;;;;10.93;9.83;;;9.80;99.90;;;;;;5024704;28;20238;-68
2023/05/06 09:29:01;;;;;;;10.50;9.53;;;9.60;99.90;;;;;;5019557;28;20587;-69
2023/05/06 09:31:28;;;;;;;13.23;11.10;;;9.40;99.90;;;;;;5023689;28;20205;-69
2023/05/06 09:33:55;;;;;;;25.17;23.03;;;9.40;99.90;;;;;;5025139;28;20728;-69
2023/05/06 09:36:22;;;;;;;15.40;14.00;;;9.30;99.90;;;;;;5025824;28;20666;-69
2023/05/06 09:38:48;;;;;;;15.47;10.10;;;9.40;99.90;;;;;;5023950;28;20238;-69
2023/05/06 09:41:14;;;;;;;11.23;10.13;;;9.40;99.90;;;;;;5024905;28;20227;-69
2023/05/06 09:43:43;;;;;;;11.93;10.77;;;9.70;99.90;;;;;;5025386;28;20265;-69
2023/05/06 09:46:11;;;;;;;11.17;10.07;;;9.60;99.90;;;;;;5026534;28;20327;-69
2023/05/06 09:48:36;;;;;;;11.77;10.57;;;9.50;99.90;;;;;;5027052;28;20252;-69
2023/05/06 09:51:03;;;;;;;11.43;10.23;;;9.60;99.90;;;;;;5029618;28;20214;-69
2023/05/06 09:53:31;;;;;;;11.47;10.37;;;9.60;99.90;;;;;;5030144;28;20249;-70
2023/05/06 09:55:57;;;;;;;11.60;10.50;;;9.50;99.90;;;;;;5029358;28;20279;-69
2023/05/06 09:58:25;;;;;;;10.97;9.97;;;9.50;99.90;;;;;;5029548;28;20240;-69
2023/05/06 10:00:51;;;;;;;12.07;9.80;;;9.70;99.90;;;;;;5024642;28;20302;-70
2023/05/06 10:03:19;;;;;;;12.93;10.53;;;9.60;99.90;;;;;;5029051;28;20248;-69
2023/05/06 10:05:45;;;;;;;10.77;9.77;;;9.60;99.90;;;;;;5028714;28;20540;-69
2023/05/06 10:08:17;;;;;;;10.37;9.33;;;9.60;99.90;;;;;;5028803;28;20200;-69
2023/05/06 10:10:43;;;;;;;12.90;9.83;;;9.70;99.90;;;;;;5027332;28;20313;-70
2023/05/06 10:13:09;;;;;;;11.20;10.00;;;9.50;99.90;;;;;;5029197;28;20210;-68
2023/05/06 10:15:36;;;;;;;9.90;9.00;;;9.50;99.90;;;;;;5029495;28;20228;-70
2023/05/06 10:18:03;;;;;;;10.90;9.80;;;9.60;99.90;;;;;;5030016;28;20204;-68
2023/05/06 10:20:30;;;;;;;11.20;9.80;;;9.60;99.90;;;;;;5027877;28;20516;-70
2023/05/06 10:23:11;;;;;;;10.27;9.27;;;9.60;99.90;;;;;;5024170;28;20283;-69
2023/05/06 10:25:42;;;;;;;10.67;9.57;;;9.60;99.90;;;;;;5025781;28;20404;-70
2023/05/06 10:28:09;;;;;;;13.10;9.43;;;9.80;99.90;;;;;;5027181;28;20747;-68
2023/05/06 10:30:37;;;;;;;12.20;10.93;;;9.70;99.90;;;;;;5029082;28;20202;-67
2023/05/06 10:33:05;;;;;;;11.37;9.10;;;9.60;99.90;;;;;;5028920;28;20739;-68
2023/05/06 10:35:42;;;;;;;10.17;9.27;;;9.70;99.90;;;;;;5029148;28;20224;-69
2023/05/06 10:38:12;;;;;;;9.93;8.87;;;9.80;99.90;;;;;;5024789;28;20222;-67
2023/05/06 10:40:39;;;;;;;9.47;8.57;;;9.80;99.90;;;;;;5027987;28;20307;-68
2023/05/06 10:43:24;;;;;;;11.00;8.90;;;10.00;99.90;;;;;;5028701;28;20829;-67
2023/05/06 10:46:12;;;;;;;9.97;8.93;;;9.80;99.90;;;;;;5024754;28;20200;-68
2023/05/06 10:48:58;;;;;;;10.53;9.17;;;9.60;99.90;;;;;;5025825;28;20203;-68
2023/05/06 10:51:27;;;;;;;9.90;8.87;;;9.60;99.90;;;;;;5020621;28;20242;-69
2023/05/06 10:54:06;;;;;;;8.37;7.67;;;9.80;99.90;;;;;;5028590;28;20793;-70
2023/05/06 10:57:01;;;;;;;10.43;9.27;;;9.80;99.90;;;;;;5023516;28;20203;-70
2023/05/06 10:59:30;;;;;;;9.00;8.23;;;9.70;99.90;;;;;;5026421;28;20254;-71
2023/05/06 11:02:01;;;;;;;12.20;8.90;;;9.70;99.90;;;;;;5028496;28;20196;-71
2023/05/06 11:04:29;;;;;;;9.20;8.33;;;9.60;99.90;;;;;;5028421;28;20202;-71
2023/05/06 11:07:12;;;;;;;8.93;8.13;;;9.80;99.90;;;;;;5025471;28;20296;-70
2023/05/06 11:09:57;;;;;;;8.80;7.90;;;10.00;99.90;;;;;;5027750;28;20275;-71
2023/05/06 11:12:43;;;;;;;9.73;7.10;;;9.90;99.90;;;;;;5026845;28;20282;-69
2023/05/06 11:15:38;;;;;;;7.70;7.00;;;10.00;99.90;;;;;;5024173;28;20235;-69
2023/05/06 11:18:26;;;;;;;8.23;7.47;;;10.10;99.90;;;;;;5024184;28;20336;-68
2023/05/06 11:21:03;;;;;;;11.10;7.40;;;10.10;99.90;;;;;;5024971;28;20637;-69
2023/05/06 11:23:41;;;;;;;7.57;6.80;;;10.20;99.90;;;;;;5032069;28;20558;-70
2023/05/06 11:26:10;;;;;;;6.13;5.63;;;10.10;99.90;;;;;;5038869;28;20208;-69
2023/05/06 11:28:37;;;;;;;7.33;6.73;;;10.00;99.90;;;;;;5032321;28;20217;-73
2023/05/06 11:31:03;;;;;;;6.13;5.63;;;10.10;99.90;;;;;;5028124;28;20230;-71
2023/05/06 11:33:35;;;;;;;7.70;7.00;;;10.20;99.90;;;;;;5027699;28;20203;-69
2023/05/06 11:36:02;;;;;;;7.27;5.77;;;10.40;99.90;;;;;;5025070;28;20219;-69
2023/05/06 11:38:42;;;;;;;6.97;5.83;;;10.40;99.90;;;;;;5026984;28;20212;-70
2023/05/06 11:41:07;;;;;;;5.63;5.10;;;10.30;99.90;;;;;;5026964;28;20718;-72
2023/05/06 11:43:33;;;;;;;5.30;4.73;;;10.20;99.90;;;;;;5028615;28;20296;-71
2023/05/06 11:45:59;;;;;;;6.00;5.50;;;10.20;99.90;;;;;;5019464;28;20237;-70
2023/05/06 11:48:24;;;;;;;6.53;5.43;;;10.20;99.90;;;;;;5020500;28;20981;-71
2023/05/06 11:50:50;;;;;;;8.07;5.17;;;10.00;99.90;;;;;;5019693;28;20201;-72
2023/05/06 11:53:18;;;;;;;4.10;3.80;;;9.90;99.90;;;;;;5021298;28;20205;-75
2023/05/06 11:55:45;;;;;;;5.47;4.40;;;9.90;99.90;;;;;;5022194;28;20290;-70
2023/05/06 11:58:15;;;;;;;4.30;4.00;;;10.20;99.90;;;;;;5019209;28;20207;-69
2023/05/06 12:00:53;;;;;;;6.03;4.40;;;10.30;99.90;;;;;;5019089;28;20296;-68
2023/05/06 12:03:20;;;;;;;4.77;4.33;;;10.20;99.90;;;;;;5024619;28;20202;-71
2023/05/06 12:05:49;;;;;;;6.57;5.93;;;10.00;99.90;;;;;;5022612;28;20223;-73
2023/05/06 12:08:18;;;;;;;5.37;4.87;;;10.20;99.90;;;;;;5018703;28;20606;-69
2023/05/06 12:10:44;;;;;;;4.73;4.33;;;10.20;99.90;;;;;;5018668;28;20580;-72
2023/05/06 12:13:10;;;;;;;3.93;3.63;;;10.10;99.90;;;;;;5023522;28;20201;-72
2023/05/06 12:15:36;;;;;;;4.60;3.80;;;9.90;99.90;;;;;;5023363;28;20207;-71
2023/05/06 12:18:04;;;;;;;4.30;3.93;;;9.90;99.90;;;;;;5024852;28;20208;-71
2023/05/06 12:20:30;;;;;;;7.70;4.97;;;10.10;99.90;;;;;;5023213;28;20217;-68
2023/05/06 12:23:11;;;;;;;4.23;3.93;;;10.00;99.90;;;;;;5019761;28;20205;-70
2023/05/06 12:25:37;;;;;;;4.33;3.93;;;9.70;99.90;;;;;;5018798;28;20240;-76
2023/05/06 12:28:19;;;;;;;4.00;3.60;;;9.70;99.90;;;;;;5017998;28;20251;-75
2023/05/06 12:30:45;;;;;;;4.33;3.70;;;9.80;99.90;;;;;;5017041;28;20294;-70
2023/05/06 12:33:11;;;;;;;3.97;3.67;;;9.70;99.90;;;;;;5015387;28;20298;-69
2023/05/06 12:35:38;;;;;;;7.63;6.77;;;9.80;99.90;;;;;;5016597;28;20201;-68
2023/05/06 12:38:11;;;;;;;5.97;4.50;;;9.50;99.90;;;;;;5016516;28;20284;-71
2023/05/06 12:40:37;;;;;;;4.63;4.20;;;9.40;99.90;;;;;;5018550;28;20224;-75
2023/05/06 12:43:03;;;;;;;4.20;3.80;;;9.60;99.90;;;;;;5017155;28;20224;-75
2023/05/06 12:45:28;;;;;;;4.20;3.90;;;9.60;99.90;;;;;;5015917;28;20283;-73
2023/05/06 12:47:56;;;;;;;4.17;3.87;;;9.70;99.90;;;;;;5014961;28;20205;-75
2023/05/06 12:50:36;;;;;;;3.43;3.23;;;9.70;99.90;;;;;;5015838;28;20249;-71